createdAt,value
2023-04-16T00:01:25.732Z,71.70
2023-04-16T00:03:53.860Z,71.80
2023-04-16T00:06:23.536Z,71.80
2023-04-16T00:08:52.137Z,71.90
2023-04-16T00:11:20.603Z,71.90
2023-04-16T00:13:49.695Z,71.90
2023-04-16T00:16:21.053Z,71.90
2023-04-16T00:18:49.202Z,72.10
2023-04-16T00:21:17.581Z,72.10
2023-04-16T00:23:45.765Z,72.20
2023-04-16T00:26:14.247Z,72.30
2023-04-16T00:28:44.970Z,72.40
2023-04-16T00:31:13.484Z,72.30
2023-04-16T00:33:41.554Z,72.30
2023-04-16T00:36:10.610Z,72.30
2023-04-16T00:38:38.801Z,72.20
2023-04-16T00:41:06.972Z,72.10
2023-04-16T00:43:35.262Z,72.10
2023-04-16T00:46:07.569Z,72.20
2023-04-16T00:48:41.422Z,72.30
2023-04-16T00:51:10.590Z,72.20
2023-04-16T00:53:39.728Z,72.10
2023-04-16T00:56:08.102Z,72.40
2023-04-16T00:58:36.476Z,72.60
2023-04-16T01:01:04.917Z,72.80
2023-04-16T01:03:40.113Z,72.80
2023-04-16T01:06:08.892Z,72.80
2023-04-16T01:08:36.840Z,72.70
2023-04-16T01:11:05.763Z,72.70
2023-04-16T01:13:34.331Z,72.60
2023-04-16T01:16:02.765Z,72.60
2023-04-16T01:18:30.984Z,72.70
2023-04-16T01:20:59.256Z,72.80
2023-04-16T01:23:27.431Z,72.90
2023-04-16T01:25:57.369Z,72.90
2023-04-16T01:28:25.628Z,72.80
2023-04-16T01:30:53.802Z,72.80
2023-04-16T01:33:37.241Z,72.90
2023-04-16T01:36:05.917Z,72.90
2023-04-16T01:38:33.985Z,72.90
2023-04-16T01:41:02.699Z,72.80
2023-04-16T01:43:30.542Z,72.90
2023-04-16T01:46:31.798Z,72.90
2023-04-16T01:48:59.778Z,72.90
2023-04-16T01:51:28.671Z,72.70
2023-04-16T01:53:56.844Z,72.80
2023-04-16T01:56:25.853Z,72.80
2023-04-16T01:58:54.461Z,72.90
2023-04-16T02:01:23.167Z,73.00
2023-04-16T02:03:52.638Z,73.30
2023-04-16T02:06:21.901Z,73.40
2023-04-16T02:08:49.882Z,73.60
2023-04-16T02:11:18.466Z,73.60
2023-04-16T02:13:47.044Z,73.60
2023-04-16T02:16:15.344Z,73.50
2023-04-16T02:18:55.494Z,73.50
2023-04-16T02:21:26.423Z,73.40
2023-04-16T02:23:55.849Z,73.40
2023-04-16T02:26:30.169Z,73.40
2023-04-16T02:29:03.474Z,73.50
2023-04-16T02:31:39.962Z,73.60
2023-04-16T02:34:09.224Z,73.60
2023-04-16T02:36:37.810Z,73.60
2023-04-16T02:39:05.879Z,73.50
2023-04-16T02:41:34.258Z,73.60
2023-04-16T02:44:02.563Z,73.60
2023-04-16T02:46:30.986Z,73.60
2023-04-16T02:48:59.093Z,73.60
2023-04-16T02:51:28.384Z,73.70
2023-04-16T02:53:57.077Z,73.70
2023-04-16T02:56:25.475Z,73.70
2023-04-16T02:58:53.807Z,73.70
2023-04-16T03:01:22.163Z,73.60
2023-04-16T03:03:50.323Z,73.50
2023-04-16T03:06:18.664Z,73.60
2023-04-16T03:08:46.557Z,73.60
2023-04-16T03:11:15.219Z,73.70
2023-04-16T03:13:43.289Z,73.70
2023-04-16T03:16:12.627Z,73.80
2023-04-16T03:18:40.576Z,73.90
2023-04-16T03:21:09.059Z,74.00
2023-04-16T03:23:36.919Z,74.00
2023-04-16T03:26:07.039Z,74.00
2023-04-16T03:28:34.903Z,74.00
2023-04-16T03:31:03.844Z,74.00
2023-04-16T03:33:31.970Z,74.00
2023-04-16T03:36:00.375Z,74.00
2023-04-16T03:38:31.601Z,73.90
2023-04-16T03:41:00.893Z,73.90
2023-04-16T03:43:32.552Z,73.90
2023-04-16T03:46:01.074Z,73.90
2023-04-16T03:48:29.809Z,73.90
2023-04-16T03:50:59.625Z,74.00
2023-04-16T03:53:28.028Z,74.10
2023-04-16T03:55:57.224Z,74.20
2023-04-16T03:58:25.408Z,74.20
2023-04-16T04:00:55.939Z,74.30
2023-04-16T04:03:24.519Z,74.30
2023-04-16T04:05:53.004Z,74.40
2023-04-16T04:08:26.976Z,74.50
2023-04-16T04:10:55.705Z,74.50
2023-04-16T04:13:25.279Z,74.50
2023-04-16T04:15:54.567Z,74.60
2023-04-16T04:18:23.584Z,74.60
2023-04-16T04:20:52.301Z,74.70
2023-04-16T04:23:24.228Z,74.70
2023-04-16T04:25:52.562Z,74.60
2023-04-16T04:28:20.487Z,74.70
2023-04-16T04:30:48.983Z,74.80
2023-04-16T04:33:16.945Z,74.80
2023-04-16T04:35:45.323Z,74.90
2023-04-16T04:38:15.639Z,75.10
2023-04-16T04:40:44.652Z,75.20
2023-04-16T04:43:13.048Z,75.30
2023-04-16T04:45:41.927Z,75.30
2023-04-16T04:48:10.020Z,75.40
2023-04-16T04:50:38.550Z,75.40
2023-04-16T04:53:10.551Z,75.50
2023-04-16T04:55:40.354Z,75.50
2023-04-16T04:58:09.049Z,75.60
2023-04-16T05:00:38.679Z,75.60
2023-04-16T05:03:10.970Z,75.60
2023-04-16T05:05:41.653Z,75.50
2023-04-16T05:08:09.767Z,75.70
2023-04-16T05:10:38.179Z,75.60
2023-04-16T05:13:06.384Z,75.60
2023-04-16T05:15:34.955Z,75.50
2023-04-16T05:18:03.141Z,75.50
2023-04-16T05:20:31.595Z,75.60
2023-04-16T05:22:59.486Z,75.70
2023-04-16T05:25:28.076Z,75.50
2023-04-16T05:27:56.253Z,75.40
2023-04-16T05:30:24.611Z,75.50
2023-04-16T05:32:52.543Z,75.70
2023-04-16T05:35:21.039Z,75.70
2023-04-16T05:37:49.251Z,75.80
2023-04-16T05:40:17.521Z,75.90
2023-04-16T05:42:45.584Z,75.90
2023-04-16T05:45:14.071Z,76.00
2023-04-16T05:47:42.245Z,75.90
2023-04-16T05:50:11.350Z,75.80
2023-04-16T05:52:39.608Z,75.90
2023-04-16T05:55:08.420Z,76.20
2023-04-16T05:57:36.480Z,76.20
2023-04-16T06:00:05.043Z,76.20
2023-04-16T06:02:40.530Z,76.30
2023-04-16T06:05:09.263Z,76.40
2023-04-16T06:07:37.475Z,76.40
2023-04-16T06:10:06.371Z,76.20
2023-04-16T06:12:34.661Z,76.30
2023-04-16T06:15:04.061Z,76.80
2023-04-16T06:17:32.086Z,76.60
2023-04-16T06:20:01.112Z,76.30
2023-04-16T06:22:29.568Z,76.20
2023-04-16T06:24:57.979Z,76.10
2023-04-16T06:27:26.366Z,76.10
2023-04-16T06:29:54.754Z,76.30
2023-04-16T06:32:22.732Z,76.50
2023-04-16T06:34:52.024Z,76.50
2023-04-16T06:37:19.970Z,76.40
2023-04-16T06:39:48.235Z,76.30
2023-04-16T06:42:16.229Z,76.20
2023-04-16T06:44:44.494Z,76.50
2023-04-16T06:47:12.695Z,76.20
2023-04-16T06:49:41.360Z,76.20
2023-04-16T06:52:09.522Z,76.20
2023-04-16T06:54:37.935Z,75.80
2023-04-16T06:57:06.108Z,76.10
2023-04-16T06:59:34.562Z,76.30
2023-04-16T07:02:02.763Z,76.50
2023-04-16T07:04:31.040Z,76.60
2023-04-16T07:06:59.112Z,76.20
2023-04-16T07:09:27.697Z,76.40
2023-04-16T07:11:55.568Z,76.00
2023-04-16T07:14:24.236Z,75.80
2023-04-16T07:16:52.082Z,75.90
2023-04-16T07:19:20.781Z,76.10
2023-04-16T07:21:49.056Z,75.70
2023-04-16T07:24:17.657Z,76.20
2023-04-16T07:26:45.658Z,76.40
2023-04-16T07:29:13.888Z,75.00
2023-04-16T07:31:42.327Z,74.80
2023-04-16T07:34:10.938Z,74.70
2023-04-16T07:36:39.307Z,74.80
2023-04-16T07:39:08.001Z,74.10
2023-04-16T07:41:36.605Z,74.40
2023-04-16T07:44:05.578Z,74.20
2023-04-16T07:46:45.705Z,74.10
2023-04-16T07:49:15.844Z,73.60
2023-04-16T07:51:43.819Z,74.10
2023-04-16T07:54:12.085Z,74.50
2023-04-16T07:56:40.402Z,74.40
2023-04-16T08:01:42.741Z,74.20
2023-04-16T08:04:11.113Z,75.10
2023-04-16T08:06:39.059Z,75.20
2023-04-16T08:09:07.403Z,75.20
2023-04-16T08:11:39.341Z,75.20
2023-04-16T08:14:07.543Z,75.20
2023-04-16T08:16:35.797Z,75.20
2023-04-16T08:19:04.177Z,75.30
2023-04-16T08:21:31.937Z,75.20
2023-04-16T08:24:00.265Z,74.30
2023-04-16T08:26:28.152Z,74.40
2023-04-16T08:28:56.228Z,74.50
2023-04-16T08:31:24.165Z,74.70
2023-04-16T08:33:52.181Z,74.60
2023-04-16T08:36:20.003Z,74.30
2023-04-16T08:38:48.061Z,74.10
2023-04-16T08:41:16.727Z,73.70
2023-04-16T08:43:49.090Z,73.40
2023-04-16T08:46:18.322Z,73.10
2023-04-16T08:48:50.391Z,72.90
2023-04-16T08:51:20.449Z,73.00
2023-04-16T08:54:15.499Z,72.60
2023-04-16T08:56:43.390Z,72.70
2023-04-16T08:59:12.196Z,73.10
2023-04-16T09:01:42.302Z,73.10
2023-04-16T09:04:11.328Z,73.10
2023-04-16T09:06:42.032Z,72.70
2023-04-16T09:09:13.041Z,72.90
2023-04-16T09:11:41.053Z,72.60
2023-04-16T09:14:11.540Z,72.70
2023-04-16T09:16:40.462Z,73.00
2023-04-16T09:19:09.040Z,73.30
2023-04-16T09:21:37.538Z,73.00
2023-04-16T09:24:06.427Z,72.30
2023-04-16T09:26:34.851Z,72.10
2023-04-16T09:29:03.376Z,72.50
2023-04-16T09:31:31.747Z,72.40
2023-04-16T09:34:08.540Z,71.70
2023-04-16T09:36:37.425Z,71.40
2023-04-16T09:39:05.544Z,70.40
2023-04-16T09:41:39.912Z,70.00
2023-04-16T09:44:08.324Z,69.90
2023-04-16T09:46:38.053Z,69.50
2023-04-16T09:49:10.967Z,69.90
2023-04-16T09:51:43.248Z,70.00
2023-04-16T09:54:11.709Z,69.90
2023-04-16T09:56:44.024Z,69.60
2023-04-16T09:59:19.274Z,69.60
2023-04-16T10:01:47.532Z,68.20
2023-04-16T10:04:16.566Z,66.90
2023-04-16T10:06:44.950Z,65.30
2023-04-16T10:09:13.108Z,63.70
2023-04-16T10:11:41.427Z,62.90
2023-04-16T10:14:10.157Z,63.00
2023-04-16T10:16:40.304Z,63.50
2023-04-16T10:19:08.684Z,61.50
2023-04-16T10:21:37.058Z,60.40
2023-04-16T10:24:05.675Z,61.10
2023-04-16T10:26:35.728Z,60.20
2023-04-16T10:29:04.354Z,58.30
2023-04-16T10:31:32.753Z,59.00
2023-04-16T10:34:01.852Z,57.20
2023-04-16T10:36:29.485Z,55.30
2023-04-16T10:39:00.114Z,54.50
2023-04-16T10:41:28.323Z,54.50
2023-04-16T10:44:12.748Z,54.70
2023-04-16T10:46:44.909Z,54.00
2023-04-16T10:49:20.589Z,54.80
2023-04-16T10:52:17.601Z,54.40
2023-04-16T10:54:48.154Z,54.70
2023-04-16T10:57:18.103Z,55.20
2023-04-16T10:59:49.196Z,55.70
2023-04-16T11:02:18.820Z,54.50
2023-04-16T11:04:49.485Z,53.50
2023-04-16T11:07:23.111Z,53.20
2023-04-16T11:10:04.534Z,52.50
2023-04-16T11:12:47.460Z,51.80
2023-04-16T11:15:17.301Z,51.90
2023-04-16T11:17:51.148Z,49.40
2023-04-16T11:20:28.157Z,47.80
2023-04-16T11:22:57.691Z,47.20
2023-04-16T11:25:29.873Z,46.10
2023-04-16T11:28:01.510Z,46.40
2023-04-16T11:30:30.991Z,46.40
2023-04-16T11:32:59.009Z,46.90
2023-04-16T11:35:27.618Z,47.80
2023-04-16T11:37:58.635Z,48.00
2023-04-16T11:40:31.534Z,47.20
2023-04-16T11:43:16.797Z,46.90
2023-04-16T11:45:57.958Z,46.50
2023-04-16T11:48:25.789Z,46.10
2023-04-16T11:50:58.471Z,45.20
2023-04-16T11:53:26.560Z,44.30
2023-04-16T11:55:54.920Z,43.30
2023-04-16T11:58:24.010Z,44.50
2023-04-16T12:00:57.110Z,45.20
2023-04-16T12:03:46.542Z,45.40
2023-04-16T12:06:15.631Z,45.50
2023-04-16T12:08:43.768Z,45.10
2023-04-16T12:11:11.798Z,44.50
2023-04-16T12:13:40.436Z,45.00
2023-04-16T12:16:19.981Z,45.50
2023-04-16T12:19:02.326Z,44.80
2023-04-16T12:21:44.941Z,45.00
2023-04-16T12:24:15.325Z,45.00
2023-04-16T12:26:53.221Z,45.70
2023-04-16T12:29:25.038Z,47.00
2023-04-16T12:31:54.339Z,46.70
2023-04-16T12:34:27.718Z,46.20
2023-04-16T12:37:11.053Z,45.70
2023-04-16T12:39:38.756Z,46.00
2023-04-16T12:42:11.536Z,46.50
2023-04-16T12:44:39.337Z,46.80
2023-04-16T12:47:07.589Z,47.30
2023-04-16T12:49:36.848Z,47.50
2023-04-16T12:52:05.752Z,46.30
2023-04-16T12:54:33.868Z,43.60
2023-04-16T12:57:01.997Z,44.00
2023-04-16T12:59:30.166Z,44.40
2023-04-16T13:01:58.517Z,44.70
2023-04-16T13:04:27.105Z,44.60
2023-04-16T13:06:55.540Z,44.60
2023-04-16T13:09:23.472Z,44.40
2023-04-16T13:11:51.971Z,44.10
2023-04-16T13:14:21.141Z,44.40
2023-04-16T13:16:49.374Z,44.50
2023-04-16T13:19:19.390Z,44.10
2023-04-16T13:21:47.648Z,43.60
2023-04-16T13:24:16.969Z,43.20
2023-04-16T13:26:45.190Z,43.30
2023-04-16T13:29:13.475Z,43.70
2023-04-16T13:31:42.331Z,44.20
2023-04-16T13:34:15.814Z,44.10
2023-04-16T13:36:44.366Z,44.40
2023-04-16T13:39:13.244Z,44.20
2023-04-16T13:41:42.109Z,44.10
2023-04-16T13:44:10.071Z,44.10
2023-04-16T13:46:38.608Z,44.30
2023-04-16T13:49:08.063Z,44.70
2023-04-16T13:51:36.906Z,45.00
2023-04-16T13:54:06.752Z,45.30
2023-04-16T13:56:35.414Z,45.50
2023-04-16T13:59:03.828Z,45.70
2023-04-16T14:01:32.675Z,46.20
2023-04-16T14:04:06.758Z,46.70
2023-04-16T14:06:37.714Z,47.00
2023-04-16T14:09:06.038Z,47.30
2023-04-16T14:11:34.757Z,47.60
2023-04-16T14:14:04.235Z,47.80
2023-04-16T14:16:33.195Z,48.00
2023-04-16T14:19:01.372Z,48.10
2023-04-16T14:21:29.982Z,48.10
2023-04-16T14:23:59.169Z,48.20
2023-04-16T14:26:28.416Z,48.20
2023-04-16T14:28:56.838Z,48.40
2023-04-16T14:31:26.740Z,48.60
2023-04-16T14:33:55.772Z,48.90
2023-04-16T14:36:26.460Z,49.20
2023-04-16T14:38:55.398Z,49.40
2023-04-16T14:41:24.060Z,49.60
2023-04-16T14:43:51.713Z,49.80
2023-04-16T14:46:20.324Z,50.00
2023-04-16T14:48:48.073Z,50.20
2023-04-16T14:51:16.838Z,50.40
2023-04-16T14:53:46.056Z,50.50
2023-04-16T14:56:15.084Z,50.60
2023-04-16T14:58:44.140Z,50.60
2023-04-16T15:01:17.560Z,50.90
2023-04-16T15:03:46.553Z,51.10
2023-04-16T15:06:17.439Z,51.50
2023-04-16T15:08:45.766Z,51.60
2023-04-16T15:11:14.325Z,51.70
2023-04-16T15:13:43.203Z,51.60
2023-04-16T15:16:11.783Z,51.80
2023-04-16T15:18:40.116Z,51.90
2023-04-16T15:21:12.671Z,52.10
2023-04-16T15:23:42.693Z,52.10
2023-04-16T15:26:10.887Z,52.40
2023-04-16T15:28:39.383Z,52.70
2023-04-16T15:31:10.472Z,52.90
2023-04-16T15:33:38.974Z,53.10
2023-04-16T15:36:08.659Z,53.00
2023-04-16T15:38:38.078Z,53.10
2023-04-16T15:41:09.910Z,52.90
2023-04-16T15:43:40.316Z,52.90
2023-04-16T15:46:09.815Z,52.90
2023-04-16T15:48:41.617Z,53.00
2023-04-16T15:51:13.116Z,53.10
2023-04-16T15:53:42.649Z,53.20
2023-04-16T15:56:12.219Z,53.40
2023-04-16T15:58:41.680Z,53.50
2023-04-16T16:01:10.650Z,53.70
2023-04-16T16:03:40.042Z,53.70
2023-04-16T16:06:09.758Z,53.90
2023-04-16T16:08:39.501Z,54.00
2023-04-16T16:11:08.997Z,54.20
2023-04-16T16:13:39.289Z,54.30
2023-04-16T16:16:09.710Z,54.40
2023-04-16T16:18:38.063Z,54.40
2023-04-16T16:21:07.101Z,54.50
2023-04-16T16:23:36.940Z,54.60
2023-04-16T16:26:07.262Z,54.70
2023-04-16T16:28:38.555Z,54.80
2023-04-16T16:31:09.106Z,54.90
2023-04-16T16:33:40.478Z,54.90
2023-04-16T16:36:13.539Z,55.00
2023-04-16T16:38:43.429Z,55.00
2023-04-16T16:41:14.871Z,55.00
2023-04-16T16:43:45.249Z,55.10
2023-04-16T16:46:15.673Z,55.30
2023-04-16T16:48:45.374Z,55.30
2023-04-16T16:51:17.615Z,55.40
2023-04-16T16:53:48.172Z,55.50
2023-04-16T16:56:18.159Z,55.60
2023-04-16T16:58:48.404Z,55.70
2023-04-16T17:01:24.379Z,55.90
2023-04-16T17:03:53.379Z,56.00
2023-04-16T17:06:25.244Z,56.10
2023-04-16T17:08:54.268Z,56.10
2023-04-16T17:11:24.410Z,56.20
2023-04-16T17:13:54.788Z,56.20
2023-04-16T17:16:27.645Z,56.10
2023-04-16T17:18:59.207Z,56.20
2023-04-16T17:21:30.380Z,56.10
2023-04-16T17:23:59.580Z,56.20
2023-04-16T17:26:29.212Z,56.40
2023-04-16T17:29:00.197Z,56.40
2023-04-16T17:31:30.961Z,56.50
2023-04-16T17:34:01.745Z,56.70
2023-04-16T17:36:32.434Z,56.70
2023-04-16T17:39:01.787Z,56.80
2023-04-16T17:41:32.203Z,57.00
2023-04-16T17:44:01.605Z,56.90
2023-04-16T17:46:32.442Z,57.20
2023-04-16T17:49:02.798Z,57.50
2023-04-16T17:51:33.030Z,57.80
2023-04-16T17:54:01.875Z,58.00
2023-04-16T17:56:32.840Z,58.30
2023-04-16T17:59:03.512Z,58.50
2023-04-16T18:01:35.210Z,58.70
2023-04-16T18:04:06.437Z,58.80
2023-04-16T18:06:38.179Z,58.90
2023-04-16T18:09:07.971Z,59.00
2023-04-16T18:11:37.092Z,59.10
2023-04-16T18:14:09.037Z,59.20
2023-04-16T18:16:40.725Z,59.50
2023-04-16T18:19:13.675Z,59.80
2023-04-16T18:21:43.829Z,60.00
2023-04-16T18:24:14.495Z,60.50
2023-04-16T18:26:47.006Z,60.30
2023-04-16T18:29:17.955Z,60.30
2023-04-16T18:31:50.026Z,60.80
2023-04-16T18:34:19.608Z,60.50
2023-04-16T18:36:49.773Z,60.50
2023-04-16T18:39:19.030Z,60.60
2023-04-16T18:41:50.336Z,60.60
2023-04-16T18:47:08.601Z,60.70
2023-04-16T18:49:38.075Z,60.70
2023-04-16T18:52:08.241Z,60.60
2023-04-16T18:54:39.864Z,60.70
2023-04-16T18:57:10.833Z,60.70
2023-04-16T18:59:49.776Z,60.80
2023-04-16T19:02:24.602Z,60.80
2023-04-16T19:04:55.677Z,60.80
2023-04-16T19:07:31.214Z,60.80
2023-04-16T19:10:03.193Z,60.80
2023-04-16T19:12:34.391Z,60.90
2023-04-16T19:15:04.025Z,61.00
2023-04-16T19:17:34.436Z,61.00
2023-04-16T19:20:03.463Z,61.10
2023-04-16T19:22:33.000Z,61.10
2023-04-16T19:25:05.866Z,61.10
2023-04-16T19:27:37.796Z,61.10
2023-04-16T19:30:08.076Z,61.10
2023-04-16T19:32:38.311Z,61.20
2023-04-16T19:35:09.792Z,61.20
2023-04-16T19:37:38.329Z,61.20
2023-04-16T19:40:07.347Z,61.10
2023-04-16T19:42:39.082Z,61.10
2023-04-16T19:45:08.360Z,61.10
2023-04-16T19:47:38.024Z,61.10
2023-04-16T19:50:12.815Z,61.10
2023-04-16T19:52:43.373Z,61.20
2023-04-16T19:55:12.468Z,61.20
2023-04-16T19:57:42.747Z,61.20
2023-04-16T20:00:12.809Z,61.20
2023-04-16T20:02:42.735Z,61.20
2023-04-16T20:05:11.395Z,61.30
2023-04-16T20:07:41.936Z,61.40
2023-04-16T20:10:11.604Z,61.60
2023-04-16T20:12:45.245Z,61.70
2023-04-16T20:15:15.105Z,61.80
2023-04-16T20:17:44.926Z,61.90
2023-04-16T20:20:17.690Z,61.90
2023-04-16T20:22:47.394Z,61.90
2023-04-16T20:25:23.160Z,62.00
2023-04-16T20:27:52.149Z,62.00
2023-04-16T20:30:22.773Z,62.10
2023-04-16T20:32:52.467Z,62.20
2023-04-16T20:35:20.626Z,62.30
2023-04-16T20:37:49.101Z,62.10
2023-04-16T20:40:17.350Z,62.20
2023-04-16T20:42:51.251Z,62.20
2023-04-16T20:45:21.530Z,62.30
2023-04-16T20:47:52.667Z,62.40
2023-04-16T20:50:21.144Z,62.50
2023-04-16T20:52:49.530Z,62.60
2023-04-16T20:55:19.371Z,62.70
2023-04-16T20:57:53.621Z,62.70
2023-04-16T21:00:23.352Z,62.90
2023-04-16T21:02:51.909Z,63.00
2023-04-16T21:05:22.531Z,63.20
2023-04-16T21:07:50.771Z,63.20
2023-04-16T21:10:20.512Z,63.20
2023-04-16T21:12:48.778Z,63.40
2023-04-16T21:15:16.875Z,63.60
2023-04-16T21:17:46.237Z,63.70
2023-04-16T21:20:14.402Z,63.70
2023-04-16T21:22:42.613Z,63.80
2023-04-16T21:25:10.542Z,63.80
2023-04-16T21:27:38.678Z,63.80
2023-04-16T21:30:07.106Z,63.80
2023-04-16T21:32:35.401Z,63.90
2023-04-16T21:35:04.092Z,64.00
2023-04-16T21:37:32.561Z,64.00
2023-04-16T21:40:01.083Z,64.10
2023-04-16T21:42:29.393Z,64.20
2023-04-16T21:44:57.490Z,64.30
2023-04-16T21:47:25.739Z,64.20
2023-04-16T21:49:53.548Z,64.30
2023-04-16T21:52:21.632Z,64.30
2023-04-16T21:54:51.778Z,64.40
2023-04-16T21:57:21.102Z,64.30
2023-04-16T21:59:49.255Z,64.30
2023-04-16T22:02:17.507Z,64.30
2023-04-16T22:04:45.406Z,64.40
2023-04-16T22:07:17.177Z,64.40
2023-04-16T22:09:45.111Z,64.50
2023-04-16T22:12:13.122Z,64.50
2023-04-16T22:14:49.151Z,64.60
2023-04-16T22:17:28.121Z,64.60
2023-04-16T22:19:55.884Z,64.60
2023-04-16T22:22:24.224Z,64.60
2023-04-16T22:24:52.336Z,64.70
2023-04-16T22:27:20.791Z,64.80
2023-04-16T22:29:48.420Z,64.70
2023-04-16T22:32:16.640Z,64.80
2023-04-16T22:34:44.674Z,64.80
2023-04-16T22:37:12.905Z,64.80
2023-04-16T22:39:40.821Z,64.80
2023-04-16T22:42:09.020Z,64.80
2023-04-16T22:44:39.847Z,64.90
2023-04-16T22:47:07.835Z,65.00
2023-04-16T22:49:35.478Z,65.10
2023-04-16T22:52:03.968Z,64.90
2023-04-16T22:54:32.381Z,65.00
2023-04-16T22:57:01.426Z,65.10
2023-04-16T22:59:29.256Z,65.20
2023-04-16T23:01:57.974Z,65.20
2023-04-16T23:04:26.429Z,65.20
2023-04-16T23:06:54.651Z,65.20
2023-04-16T23:09:22.893Z,65.30
2023-04-16T23:11:51.206Z,65.30
2023-04-16T23:14:19.052Z,65.30
2023-04-16T23:16:47.593Z,65.40
2023-04-16T23:19:16.120Z,65.30
2023-04-16T23:21:44.312Z,65.30
2023-04-16T23:24:12.003Z,65.40
2023-04-16T23:26:40.097Z,65.40
2023-04-16T23:29:07.837Z,65.50
2023-04-16T23:31:36.637Z,65.50
2023-04-16T23:34:04.750Z,65.50
2023-04-16T23:36:32.947Z,65.60
2023-04-16T23:39:00.687Z,65.50
2023-04-16T23:41:28.921Z,65.60
2023-04-16T23:43:56.836Z,65.70
2023-04-16T23:46:25.420Z,65.80
2023-04-16T23:48:53.309Z,65.90
2023-04-16T23:51:23.174Z,66.00
2023-04-16T23:53:51.079Z,66.00
2023-04-16T23:56:19.214Z,66.10
2023-04-16T23:58:47.280Z,66.10
